sensor_id;sensor_type;location;lat;lon;timestamp;P1;durP1;ratioP1;P2;durP2;ratioP2
71368;SDS011;59175;53.214;5.728;2022-12-18T00:00:41;21.93;;;4.50;;
71368;SDS011;59175;53.214;5.728;2022-12-18T00:03:07;20.75;;;6.72;;
71368;SDS011;59175;53.214;5.728;2022-12-18T00:05:32;15.20;;;8.13;;
71368;SDS011;59175;53.214;5.728;2022-12-18T00:07:57;15.83;;;8.57;;
71368;SDS011;59175;53.214;5.728;2022-12-18T00:10:23;13.53;;;3.80;;
71368;SDS011;59175;53.214;5.728;2022-12-18T00:12:48;9.07;;;6.20;;
71368;SDS011;59175;53.214;5.728;2022-12-18T00:15:13;9.57;;;5.00;;
71368;SDS011;59175;53.214;5.728;2022-12-18T00:17:39;11.77;;;6.18;;
71368;SDS011;59175;53.214;5.728;2022-12-18T00:20:05;3.73;;;2.23;;
71368;SDS011;59175;53.214;5.728;2022-12-18T00:22:30;27.30;;;7.40;;
71368;SDS011;59175;53.214;5.728;2022-12-18T00:24:56;9.37;;;3.57;;
71368;SDS011;59175;53.214;5.728;2022-12-18T00:27:21;14.97;;;6.67;;
71368;SDS011;59175;53.214;5.728;2022-12-18T00:29:47;27.73;;;5.10;;
71368;SDS011;59175;53.214;5.728;2022-12-18T00:32:13;6.15;;;2.22;;
71368;SDS011;59175;53.214;5.728;2022-12-18T00:34:38;13.03;;;6.47;;
71368;SDS011;59175;53.214;5.728;2022-12-18T00:37:03;10.30;;;7.07;;
71368;SDS011;59175;53.214;5.728;2022-12-18T00:39:28;20.87;;;7.60;;
71368;SDS011;59175;53.214;5.728;2022-12-18T00:41:53;11.10;;;5.40;;
71368;SDS011;59175;53.214;5.728;2022-12-18T00:44:37;14.88;;;5.60;;
71368;SDS011;59175;53.214;5.728;2022-12-18T00:47:02;8.40;;;2.90;;
71368;SDS011;59175;53.214;5.728;2022-12-18T00:49:27;12.53;;;4.97;;
71368;SDS011;59175;53.214;5.728;2022-12-18T00:51:53;11.30;;;4.77;;
71368;SDS011;59175;53.214;5.728;2022-12-18T00:54:18;9.03;;;4.27;;
71368;SDS011;59175;53.214;5.728;2022-12-18T00:56:43;15.10;;;5.13;;
71368;SDS011;59175;53.214;5.728;2022-12-18T00:59:08;13.10;;;4.53;;
71368;SDS011;59175;53.214;5.728;2022-12-18T01:01:33;7.80;;;3.57;;
71368;SDS011;59175;53.214;5.728;2022-12-18T01:03:59;16.47;;;5.97;;
71368;SDS011;59175;53.214;5.728;2022-12-18T01:06:25;9.17;;;5.77;;
71368;SDS011;59175;53.214;5.728;2022-12-18T01:08:50;11.13;;;4.10;;
71368;SDS011;59175;53.214;5.728;2022-12-18T01:11:16;6.73;;;3.13;;
71368;SDS011;59175;53.214;5.728;2022-12-18T01:13:42;8.93;;;3.67;;
71368;SDS011;59175;53.214;5.728;2022-12-18T01:16:08;16.53;;;6.13;;
71368;SDS011;59175;53.214;5.728;2022-12-18T01:18:33;15.73;;;5.32;;
71368;SDS011;59175;53.214;5.728;2022-12-18T01:20:59;10.57;;;5.53;;
71368;SDS011;59175;53.214;5.728;2022-12-18T01:23:25;15.90;;;5.23;;
71368;SDS011;59175;53.214;5.728;2022-12-18T01:25:51;9.70;;;5.03;;
71368;SDS011;59175;53.214;5.728;2022-12-18T01:28:16;12.93;;;4.70;;
71368;SDS011;59175;53.214;5.728;2022-12-18T01:30:41;11.00;;;5.43;;
71368;SDS011;59175;53.214;5.728;2022-12-18T01:33:06;8.07;;;3.77;;
71368;SDS011;59175;53.214;5.728;2022-12-18T01:35:32;10.27;;;3.93;;
71368;SDS011;59175;53.214;5.728;2022-12-18T01:37:57;15.93;;;5.83;;
71368;SDS011;59175;53.214;5.728;2022-12-18T01:40:22;1.77;;;1.57;;
71368;SDS011;59175;53.214;5.728;2022-12-18T01:42:51;12.33;;;4.93;;
71368;SDS011;59175;53.214;5.728;2022-12-18T01:45:23;25.05;;;8.20;;
71368;SDS011;59175;53.214;5.728;2022-12-18T01:47:50;6.15;;;4.43;;
71368;SDS011;59175;53.214;5.728;2022-12-18T01:52:42;9.93;;;4.43;;
71368;SDS011;59175;53.214;5.728;2022-12-18T01:55:11;6.93;;;3.15;;
71368;SDS011;59175;53.214;5.728;2022-12-18T01:57:37;4.40;;;2.83;;
71368;SDS011;59175;53.214;5.728;2022-12-18T02:00:08;8.60;;;3.17;;
71368;SDS011;59175;53.214;5.728;2022-12-18T02:02:34;9.27;;;3.88;;
71368;SDS011;59175;53.214;5.728;2022-12-18T02:04:59;11.07;;;4.37;;
71368;SDS011;59175;53.214;5.728;2022-12-18T02:10:00;5.57;;;2.53;;
71368;SDS011;59175;53.214;5.728;2022-12-18T02:12:30;13.38;;;3.72;;
71368;SDS011;59175;53.214;5.728;2022-12-18T02:17:37;14.63;;;5.50;;
71368;SDS011;59175;53.214;5.728;2022-12-18T02:20:17;13.38;;;5.25;;
71368;SDS011;59175;53.214;5.728;2022-12-18T02:22:46;8.18;;;3.95;;
71368;SDS011;59175;53.214;5.728;2022-12-18T02:27:40;9.80;;;3.80;;
71368;SDS011;59175;53.214;5.728;2022-12-18T02:30:06;5.93;;;4.70;;
71368;SDS011;59175;53.214;5.728;2022-12-18T02:32:34;16.25;;;7.00;;
71368;SDS011;59175;53.214;5.728;2022-12-18T02:35:01;11.23;;;6.07;;
71368;SDS011;59175;53.214;5.728;2022-12-18T02:37:27;14.90;;;4.72;;
71368;SDS011;59175;53.214;5.728;2022-12-18T02:39:53;13.73;;;4.17;;
71368;SDS011;59175;53.214;5.728;2022-12-18T02:42:19;3.90;;;1.92;;
71368;SDS011;59175;53.214;5.728;2022-12-18T02:44:45;3.60;;;2.53;;
71368;SDS011;59175;53.214;5.728;2022-12-18T02:47:11;18.08;;;4.78;;
71368;SDS011;59175;53.214;5.728;2022-12-18T02:57:33;7.50;;;4.32;;
71368;SDS011;59175;53.214;5.728;2022-12-18T03:00:11;4.93;;;2.15;;
71368;SDS011;59175;53.214;5.728;2022-12-18T03:02:39;5.33;;;3.60;;
71368;SDS011;59175;53.214;5.728;2022-12-18T03:05:10;12.73;;;6.78;;
71368;SDS011;59175;53.214;5.728;2022-12-18T03:07:42;5.05;;;2.05;;
71368;SDS011;59175;53.214;5.728;2022-12-18T03:10:09;6.00;;;2.70;;
71368;SDS011;59175;53.214;5.728;2022-12-18T03:12:38;8.55;;;3.83;;
71368;SDS011;59175;53.214;5.728;2022-12-18T03:15:09;6.95;;;4.53;;
71368;SDS011;59175;53.214;5.728;2022-12-18T03:17:35;9.85;;;2.88;;
71368;SDS011;59175;53.214;5.728;2022-12-18T03:20:08;10.73;;;2.15;;
71368;SDS011;59175;53.214;5.728;2022-12-18T03:22:35;5.90;;;2.10;;
71368;SDS011;59175;53.214;5.728;2022-12-18T03:25:03;13.07;;;5.43;;
71368;SDS011;59175;53.214;5.728;2022-12-18T03:27:29;6.43;;;3.53;;
71368;SDS011;59175;53.214;5.728;2022-12-18T03:30:06;8.68;;;3.78;;
71368;SDS011;59175;53.214;5.728;2022-12-18T03:32:40;10.75;;;1.90;;
71368;SDS011;59175;53.214;5.728;2022-12-18T03:35:06;14.87;;;5.40;;
71368;SDS011;59175;53.214;5.728;2022-12-18T03:37:32;14.70;;;4.20;;
71368;SDS011;59175;53.214;5.728;2022-12-18T03:39:58;6.87;;;3.27;;
71368;SDS011;59175;53.214;5.728;2022-12-18T03:47:15;6.83;;;2.53;;
71368;SDS011;59175;53.214;5.728;2022-12-18T03:52:11;6.83;;;3.10;;
71368;SDS011;59175;53.214;5.728;2022-12-18T03:54:38;6.88;;;2.13;;
71368;SDS011;59175;53.214;5.728;2022-12-18T03:57:13;16.55;;;3.05;;
71368;SDS011;59175;53.214;5.728;2022-12-18T03:59:39;14.27;;;5.45;;
71368;SDS011;59175;53.214;5.728;2022-12-18T04:02:06;10.93;;;4.93;;
71368;SDS011;59175;53.214;5.728;2022-12-18T04:04:32;13.88;;;5.88;;
71368;SDS011;59175;53.214;5.728;2022-12-18T04:06:58;12.95;;;5.05;;
71368;SDS011;59175;53.214;5.728;2022-12-18T04:09:24;4.47;;;1.03;;
71368;SDS011;59175;53.214;5.728;2022-12-18T04:11:49;13.37;;;3.17;;
71368;SDS011;59175;53.214;5.728;2022-12-18T04:14:16;6.47;;;3.60;;
71368;SDS011;59175;53.214;5.728;2022-12-18T04:16:41;8.23;;;2.93;;
71368;SDS011;59175;53.214;5.728;2022-12-18T04:19:06;16.13;;;4.40;;
71368;SDS011;59175;53.214;5.728;2022-12-18T04:21:32;6.63;;;3.53;;
71368;SDS011;59175;53.214;5.728;2022-12-18T04:23:57;10.27;;;3.30;;
71368;SDS011;59175;53.214;5.728;2022-12-18T04:26:22;16.80;;;3.20;;
71368;SDS011;59175;53.214;5.728;2022-12-18T04:28:47;8.40;;;3.97;;
71368;SDS011;59175;53.214;5.728;2022-12-18T04:31:12;3.40;;;2.63;;
71368;SDS011;59175;53.214;5.728;2022-12-18T04:33:38;7.50;;;2.63;;
71368;SDS011;59175;53.214;5.728;2022-12-18T04:36:03;9.40;;;4.53;;
71368;SDS011;59175;53.214;5.728;2022-12-18T04:38:28;11.48;;;5.05;;
71368;SDS011;59175;53.214;5.728;2022-12-18T04:40:54;5.93;;;4.17;;
71368;SDS011;59175;53.214;5.728;2022-12-18T04:43:19;8.33;;;4.60;;
71368;SDS011;59175;53.214;5.728;2022-12-18T04:45:44;4.43;;;2.00;;
71368;SDS011;59175;53.214;5.728;2022-12-18T04:48:09;5.27;;;3.03;;
71368;SDS011;59175;53.214;5.728;2022-12-18T04:50:35;9.90;;;4.87;;
71368;SDS011;59175;53.214;5.728;2022-12-18T04:53:00;14.27;;;4.77;;
71368;SDS011;59175;53.214;5.728;2022-12-18T04:55:25;6.10;;;3.33;;
71368;SDS011;59175;53.214;5.728;2022-12-18T04:57:51;13.57;;;4.30;;
71368;SDS011;59175;53.214;5.728;2022-12-18T05:00:16;4.97;;;2.40;;
71368;SDS011;59175;53.214;5.728;2022-12-18T05:02:41;6.37;;;3.63;;
71368;SDS011;59175;53.214;5.728;2022-12-18T05:05:07;9.80;;;5.03;;
71368;SDS011;59175;53.214;5.728;2022-12-18T05:07:32;12.37;;;7.00;;
71368;SDS011;59175;53.214;5.728;2022-12-18T05:09:57;9.20;;;1.63;;
71368;SDS011;59175;53.214;5.728;2022-12-18T05:12:22;14.57;;;3.87;;
71368;SDS011;59175;53.214;5.728;2022-12-18T05:14:47;5.10;;;2.03;;
71368;SDS011;59175;53.214;5.728;2022-12-18T05:17:13;19.03;;;3.40;;
71368;SDS011;59175;53.214;5.728;2022-12-18T05:19:38;5.20;;;3.30;;
71368;SDS011;59175;53.214;5.728;2022-12-18T05:22:03;13.40;;;4.40;;
71368;SDS011;59175;53.214;5.728;2022-12-18T05:24:28;12.20;;;3.90;;
71368;SDS011;59175;53.214;5.728;2022-12-18T05:26:53;6.47;;;2.83;;
71368;SDS011;59175;53.214;5.728;2022-12-18T05:29:19;13.03;;;3.40;;
71368;SDS011;59175;53.214;5.728;2022-12-18T05:31:44;9.03;;;4.60;;
71368;SDS011;59175;53.214;5.728;2022-12-18T05:34:09;8.93;;;4.00;;
71368;SDS011;59175;53.214;5.728;2022-12-18T05:36:34;22.47;;;2.93;;
71368;SDS011;59175;53.214;5.728;2022-12-18T05:38:59;9.83;;;3.13;;
71368;SDS011;59175;53.214;5.728;2022-12-18T05:41:25;7.17;;;4.03;;
71368;SDS011;59175;53.214;5.728;2022-12-18T05:43:50;7.57;;;3.08;;
71368;SDS011;59175;53.214;5.728;2022-12-18T05:46:16;8.07;;;2.80;;
71368;SDS011;59175;53.214;5.728;2022-12-18T05:48:42;10.38;;;2.45;;
71368;SDS011;59175;53.214;5.728;2022-12-18T05:51:10;4.57;;;2.03;;
71368;SDS011;59175;53.214;5.728;2022-12-18T05:53:35;8.48;;;1.45;;
71368;SDS011;59175;53.214;5.728;2022-12-18T05:56:02;7.70;;;3.03;;
71368;SDS011;59175;53.214;5.728;2022-12-18T05:58:28;17.08;;;6.25;;
71368;SDS011;59175;53.214;5.728;2022-12-18T06:00:53;8.93;;;3.37;;
71368;SDS011;59175;53.214;5.728;2022-12-18T06:03:18;7.37;;;1.33;;
71368;SDS011;59175;53.214;5.728;2022-12-18T06:05:44;14.90;;;2.73;;
71368;SDS011;59175;53.214;5.728;2022-12-18T06:08:10;3.27;;;3.00;;
71368;SDS011;59175;53.214;5.728;2022-12-18T06:10:35;11.32;;;3.53;;
71368;SDS011;59175;53.214;5.728;2022-12-18T06:13:01;0.73;;;0.43;;
71368;SDS011;59175;53.214;5.728;2022-12-18T06:15:26;8.87;;;2.13;;
71368;SDS011;59175;53.214;5.728;2022-12-18T06:17:51;5.57;;;3.47;;
71368;SDS011;59175;53.214;5.728;2022-12-18T06:20:17;11.60;;;4.00;;
71368;SDS011;59175;53.214;5.728;2022-12-18T06:22:42;8.40;;;3.60;;
71368;SDS011;59175;53.214;5.728;2022-12-18T06:25:07;4.77;;;2.67;;
71368;SDS011;59175;53.214;5.728;2022-12-18T06:27:33;6.83;;;1.30;;
71368;SDS011;59175;53.214;5.728;2022-12-18T06:29:58;3.10;;;1.77;;
71368;SDS011;59175;53.214;5.728;2022-12-18T06:32:24;6.97;;;2.33;;
71368;SDS011;59175;53.214;5.728;2022-12-18T06:34:49;11.77;;;2.67;;
71368;SDS011;59175;53.214;5.728;2022-12-18T06:37:14;7.13;;;2.97;;
71368;SDS011;59175;53.214;5.728;2022-12-18T06:39:39;6.87;;;1.10;;
71368;SDS011;59175;53.214;5.728;2022-12-18T06:42:04;5.97;;;2.67;;
71368;SDS011;59175;53.214;5.728;2022-12-18T06:44:30;5.27;;;1.70;;
71368;SDS011;59175;53.214;5.728;2022-12-18T06:46:55;7.57;;;2.90;;
71368;SDS011;59175;53.214;5.728;2022-12-18T06:49:20;1.10;;;0.87;;
71368;SDS011;59175;53.214;5.728;2022-12-18T06:51:45;6.17;;;4.40;;
71368;SDS011;59175;53.214;5.728;2022-12-18T06:54:11;2.50;;;0.50;;
71368;SDS011;59175;53.214;5.728;2022-12-18T06:56:36;7.93;;;2.17;;
71368;SDS011;59175;53.214;5.728;2022-12-18T06:59:01;1.10;;;0.67;;
71368;SDS011;59175;53.214;5.728;2022-12-18T07:01:26;4.23;;;2.83;;
71368;SDS011;59175;53.214;5.728;2022-12-18T07:03:52;4.13;;;1.73;;
71368;SDS011;59175;53.214;5.728;2022-12-18T07:06:19;5.28;;;2.97;;
71368;SDS011;59175;53.214;5.728;2022-12-18T07:08:45;3.95;;;1.38;;
71368;SDS011;59175;53.214;5.728;2022-12-18T07:11:10;5.40;;;1.13;;
71368;SDS011;59175;53.214;5.728;2022-12-18T07:13:35;9.93;;;2.43;;
71368;SDS011;59175;53.214;5.728;2022-12-18T07:16:11;0.87;;;0.53;;
71368;SDS011;59175;53.214;5.728;2022-12-18T07:18:37;3.70;;;1.27;;
71368;SDS011;59175;53.214;5.728;2022-12-18T07:21:03;5.03;;;4.33;;
71368;SDS011;59175;53.214;5.728;2022-12-18T07:23:28;15.75;;;3.03;;
71368;SDS011;59175;53.214;5.728;2022-12-18T07:25:53;2.37;;;1.20;;
71368;SDS011;59175;53.214;5.728;2022-12-18T07:28:19;2.97;;;2.33;;
71368;SDS011;59175;53.214;5.728;2022-12-18T07:30:44;12.35;;;2.97;;
71368;SDS011;59175;53.214;5.728;2022-12-18T07:33:09;6.33;;;1.63;;
71368;SDS011;59175;53.214;5.728;2022-12-18T07:35:34;10.10;;;2.83;;
71368;SDS011;59175;53.214;5.728;2022-12-18T07:37:59;2.53;;;1.00;;
71368;SDS011;59175;53.214;5.728;2022-12-18T07:40:25;7.90;;;1.67;;
71368;SDS011;59175;53.214;5.728;2022-12-18T07:42:50;8.63;;;2.63;;
71368;SDS011;59175;53.214;5.728;2022-12-18T07:45:15;3.03;;;1.70;;
71368;SDS011;59175;53.214;5.728;2022-12-18T07:47:40;5.13;;;1.13;;
71368;SDS011;59175;53.214;5.728;2022-12-18T07:50:06;3.70;;;0.63;;
71368;SDS011;59175;53.214;5.728;2022-12-18T07:52:31;2.83;;;1.45;;
71368;SDS011;59175;53.214;5.728;2022-12-18T07:54:57;8.93;;;2.63;;
71368;SDS011;59175;53.214;5.728;2022-12-18T07:57:22;4.97;;;2.53;;
71368;SDS011;59175;53.214;5.728;2022-12-18T07:59:47;9.03;;;3.33;;
71368;SDS011;59175;53.214;5.728;2022-12-18T08:02:12;1.23;;;0.80;;
71368;SDS011;59175;53.214;5.728;2022-12-18T08:04:37;0.73;;;0.27;;
71368;SDS011;59175;53.214;5.728;2022-12-18T08:07:03;2.47;;;1.43;;
71368;SDS011;59175;53.214;5.728;2022-12-18T08:09:28;2.43;;;0.97;;
71368;SDS011;59175;53.214;5.728;2022-12-18T08:11:53;4.07;;;1.83;;
71368;SDS011;59175;53.214;5.728;2022-12-18T08:14:18;5.50;;;2.10;;
71368;SDS011;59175;53.214;5.728;2022-12-18T08:16:43;2.73;;;1.40;;
71368;SDS011;59175;53.214;5.728;2022-12-18T08:19:09;3.80;;;1.47;;
71368;SDS011;59175;53.214;5.728;2022-12-18T08:21:34;3.03;;;1.47;;
71368;SDS011;59175;53.214;5.728;2022-12-18T08:23:59;3.53;;;2.17;;
71368;SDS011;59175;53.214;5.728;2022-12-18T08:26:26;1.60;;;1.17;;
71368;SDS011;59175;53.214;5.728;2022-12-18T08:28:53;6.72;;;1.20;;
71368;SDS011;59175;53.214;5.728;2022-12-18T08:31:18;9.80;;;1.17;;
71368;SDS011;59175;53.214;5.728;2022-12-18T08:33:44;3.30;;;1.97;;
71368;SDS011;59175;53.214;5.728;2022-12-18T08:36:09;6.13;;;2.80;;
71368;SDS011;59175;53.214;5.728;2022-12-18T08:38:34;1.73;;;0.90;;
71368;SDS011;59175;53.214;5.728;2022-12-18T08:41:00;3.53;;;1.90;;
71368;SDS011;59175;53.214;5.728;2022-12-18T08:43:26;4.95;;;2.35;;
71368;SDS011;59175;53.214;5.728;2022-12-18T08:46:10;8.32;;;5.55;;
71368;SDS011;59175;53.214;5.728;2022-12-18T08:48:35;1.77;;;0.97;;
71368;SDS011;59175;53.214;5.728;2022-12-18T08:51:00;3.20;;;1.77;;
71368;SDS011;59175;53.214;5.728;2022-12-18T08:53:26;9.43;;;2.60;;
71368;SDS011;59175;53.214;5.728;2022-12-18T08:55:51;7.40;;;2.00;;
71368;SDS011;59175;53.214;5.728;2022-12-18T08:58:16;4.03;;;0.83;;
71368;SDS011;59175;53.214;5.728;2022-12-18T09:00:42;9.37;;;2.93;;
71368;SDS011;59175;53.214;5.728;2022-12-18T09:03:14;5.30;;;1.87;;
71368;SDS011;59175;53.214;5.728;2022-12-18T09:05:39;3.40;;;2.00;;
71368;SDS011;59175;53.214;5.728;2022-12-18T09:08:04;2.03;;;1.00;;
71368;SDS011;59175;53.214;5.728;2022-12-18T09:10:29;7.53;;;2.63;;
71368;SDS011;59175;53.214;5.728;2022-12-18T09:12:55;4.57;;;1.77;;
71368;SDS011;59175;53.214;5.728;2022-12-18T09:15:21;8.97;;;1.00;;
71368;SDS011;59175;53.214;5.728;2022-12-18T09:17:46;5.67;;;1.57;;
71368;SDS011;59175;53.214;5.728;2022-12-18T09:20:11;4.93;;;1.88;;
71368;SDS011;59175;53.214;5.728;2022-12-18T09:22:36;0.40;;;0.33;;
71368;SDS011;59175;53.214;5.728;2022-12-18T09:25:02;0.77;;;0.40;;
71368;SDS011;59175;53.214;5.728;2022-12-18T09:27:27;3.93;;;1.43;;
71368;SDS011;59175;53.214;5.728;2022-12-18T09:29:52;1.93;;;0.40;;
71368;SDS011;59175;53.214;5.728;2022-12-18T09:32:17;3.47;;;1.70;;
71368;SDS011;59175;53.214;5.728;2022-12-18T09:34:42;3.37;;;0.77;;
71368;SDS011;59175;53.214;5.728;2022-12-18T09:37:08;6.87;;;1.80;;
71368;SDS011;59175;53.214;5.728;2022-12-18T09:39:33;4.23;;;1.30;;
71368;SDS011;59175;53.214;5.728;2022-12-18T09:41:58;2.53;;;1.47;;
71368;SDS011;59175;53.214;5.728;2022-12-18T09:44:25;4.60;;;2.63;;
71368;SDS011;59175;53.214;5.728;2022-12-18T09:49:19;6.30;;;1.42;;
71368;SDS011;59175;53.214;5.728;2022-12-18T09:54:16;5.80;;;2.60;;
71368;SDS011;59175;53.214;5.728;2022-12-18T09:56:43;4.78;;;2.08;;
71368;SDS011;59175;53.214;5.728;2022-12-18T09:59:15;16.50;;;2.80;;
71368;SDS011;59175;53.214;5.728;2022-12-18T10:01:43;4.57;;;1.95;;
71368;SDS011;59175;53.214;5.728;2022-12-18T10:04:08;10.10;;;2.57;;
71368;SDS011;59175;53.214;5.728;2022-12-18T10:09:00;6.70;;;1.80;;
71368;SDS011;59175;53.214;5.728;2022-12-18T10:11:36;5.20;;;1.37;;
71368;SDS011;59175;53.214;5.728;2022-12-18T10:14:16;4.13;;;1.75;;
71368;SDS011;59175;53.214;5.728;2022-12-18T10:16:46;5.22;;;1.33;;
71368;SDS011;59175;53.214;5.728;2022-12-18T10:19:28;6.38;;;2.45;;
71368;SDS011;59175;53.214;5.728;2022-12-18T10:22:10;3.78;;;2.85;;
71368;SDS011;59175;53.214;5.728;2022-12-18T10:24:39;5.45;;;0.73;;
71368;SDS011;59175;53.214;5.728;2022-12-18T10:29:38;6.20;;;1.77;;
71368;SDS011;59175;53.214;5.728;2022-12-18T10:32:04;4.10;;;1.77;;
71368;SDS011;59175;53.214;5.728;2022-12-18T10:34:29;2.03;;;0.97;;
71368;SDS011;59175;53.214;5.728;2022-12-18T10:36:54;3.03;;;1.47;;
71368;SDS011;59175;53.214;5.728;2022-12-18T10:39:20;3.30;;;1.53;;
71368;SDS011;59175;53.214;5.728;2022-12-18T10:41:51;7.13;;;4.28;;
71368;SDS011;59175;53.214;5.728;2022-12-18T10:44:18;4.20;;;1.70;;
71368;SDS011;59175;53.214;5.728;2022-12-18T10:46:46;4.15;;;1.65;;
71368;SDS011;59175;53.214;5.728;2022-12-18T10:49:18;6.22;;;1.67;;
71368;SDS011;59175;53.214;5.728;2022-12-18T10:51:44;7.82;;;4.40;;
71368;SDS011;59175;53.214;5.728;2022-12-18T10:54:14;5.87;;;2.40;;
71368;SDS011;59175;53.214;5.728;2022-12-18T10:56:39;3.72;;;1.85;;
71368;SDS011;59175;53.214;5.728;2022-12-18T10:59:06;5.37;;;1.40;;
71368;SDS011;59175;53.214;5.728;2022-12-18T11:04:18;3.22;;;1.30;;
71368;SDS011;59175;53.214;5.728;2022-12-18T11:09:22;5.95;;;1.83;;
71368;SDS011;59175;53.214;5.728;2022-12-18T11:11:52;5.45;;;2.33;;
71368;SDS011;59175;53.214;5.728;2022-12-18T11:14:31;2.33;;;1.50;;
71368;SDS011;59175;53.214;5.728;2022-12-18T11:16:57;5.93;;;1.33;;
71368;SDS011;59175;53.214;5.728;2022-12-18T11:19:26;3.22;;;1.17;;
71368;SDS011;59175;53.214;5.728;2022-12-18T11:21:53;2.75;;;1.50;;
71368;SDS011;59175;53.214;5.728;2022-12-18T11:24:19;5.87;;;2.97;;
71368;SDS011;59175;53.214;5.728;2022-12-18T11:26:45;6.97;;;1.50;;
71368;SDS011;59175;53.214;5.728;2022-12-18T11:29:15;3.80;;;1.40;;
71368;SDS011;59175;53.214;5.728;2022-12-18T11:31:41;6.65;;;2.20;;
71368;SDS011;59175;53.214;5.728;2022-12-18T11:34:11;10.13;;;5.97;;
71368;SDS011;59175;53.214;5.728;2022-12-18T11:36:39;6.15;;;1.55;;
71368;SDS011;59175;53.214;5.728;2022-12-18T11:39:09;3.15;;;1.40;;
71368;SDS011;59175;53.214;5.728;2022-12-18T11:44:50;6.97;;;1.98;;
71368;SDS011;59175;53.214;5.728;2022-12-18T11:47:30;3.80;;;2.13;;
71368;SDS011;59175;53.214;5.728;2022-12-18T11:50:02;1.65;;;0.57;;
71368;SDS011;59175;53.214;5.728;2022-12-18T11:52:34;5.82;;;1.65;;
71368;SDS011;59175;53.214;5.728;2022-12-18T11:55:01;2.67;;;0.63;;
71368;SDS011;59175;53.214;5.728;2022-12-18T12:00:30;2.20;;;1.17;;
71368;SDS011;59175;53.214;5.728;2022-12-18T12:15:51;7.20;;;2.65;;
71368;SDS011;59175;53.214;5.728;2022-12-18T12:20:53;3.63;;;1.67;;
71368;SDS011;59175;53.214;5.728;2022-12-18T12:25:52;3.50;;;2.10;;
71368;SDS011;59175;53.214;5.728;2022-12-18T12:33:49;4.53;;;1.45;;
71368;SDS011;59175;53.214;5.728;2022-12-18T12:36:21;5.80;;;1.47;;
71368;SDS011;59175;53.214;5.728;2022-12-18T12:38:51;8.25;;;1.55;;
71368;SDS011;59175;53.214;5.728;2022-12-18T12:41:20;4.65;;;1.75;;
71368;SDS011;59175;53.214;5.728;2022-12-18T12:44:07;3.22;;;0.57;;
71368;SDS011;59175;53.214;5.728;2022-12-18T12:46:35;1.60;;;0.43;;
71368;SDS011;59175;53.214;5.728;2022-12-18T12:49:02;4.28;;;1.70;;
71368;SDS011;59175;53.214;5.728;2022-12-18T12:51:33;2.88;;;1.67;;
71368;SDS011;59175;53.214;5.728;2022-12-18T12:54:00;6.17;;;0.60;;
71368;SDS011;59175;53.214;5.728;2022-12-18T12:56:29;3.00;;;0.75;;
71368;SDS011;59175;53.214;5.728;2022-12-18T13:00:00;1.33;;;0.52;;
71368;SDS011;59175;53.214;5.728;2022-12-18T13:01:59;4.88;;;1.80;;
71368;SDS011;59175;53.214;5.728;2022-12-18T13:07:35;4.20;;;2.53;;
71368;SDS011;59175;53.214;5.728;2022-12-18T13:20:33;2.20;;;1.58;;
71368;SDS011;59175;53.214;5.728;2022-12-18T13:22:59;4.50;;;1.50;;
71368;SDS011;59175;53.214;5.728;2022-12-18T13:28:04;19.50;;;7.15;;
71368;SDS011;59175;53.214;5.728;2022-12-18T13:40:56;14.18;;;4.90;;
71368;SDS011;59175;53.214;5.728;2022-12-18T13:45:58;6.00;;;1.20;;
71368;SDS011;59175;53.214;5.728;2022-12-18T13:48:25;4.27;;;1.30;;
71368;SDS011;59175;53.214;5.728;2022-12-18T13:50:52;5.25;;;1.90;;
71368;SDS011;59175;53.214;5.728;2022-12-18T13:53:20;5.13;;;1.27;;
71368;SDS011;59175;53.214;5.728;2022-12-18T13:55:46;5.90;;;1.88;;
71368;SDS011;59175;53.214;5.728;2022-12-18T13:58:11;4.35;;;1.73;;
71368;SDS011;59175;53.214;5.728;2022-12-18T14:00:40;2.33;;;1.07;;
71368;SDS011;59175;53.214;5.728;2022-12-18T14:03:17;8.82;;;1.02;;
71368;SDS011;59175;53.214;5.728;2022-12-18T14:05:43;1.93;;;0.77;;
71368;SDS011;59175;53.214;5.728;2022-12-18T14:08:13;2.45;;;0.95;;
71368;SDS011;59175;53.214;5.728;2022-12-18T14:10:43;1.02;;;0.52;;
71368;SDS011;59175;53.214;5.728;2022-12-18T14:13:09;5.28;;;1.40;;
71368;SDS011;59175;53.214;5.728;2022-12-18T14:15:36;4.80;;;1.08;;
71368;SDS011;59175;53.214;5.728;2022-12-18T14:20:44;5.07;;;1.85;;
71368;SDS011;59175;53.214;5.728;2022-12-18T14:25:53;4.80;;;1.20;;
71368;SDS011;59175;53.214;5.728;2022-12-18T14:28:18;3.85;;;1.40;;
71368;SDS011;59175;53.214;5.728;2022-12-18T14:30:44;2.63;;;0.97;;
71368;SDS011;59175;53.214;5.728;2022-12-18T14:33:14;2.33;;;1.13;;
71368;SDS011;59175;53.214;5.728;2022-12-18T14:35:51;6.38;;;1.75;;
71368;SDS011;59175;53.214;5.728;2022-12-18T14:38:20;2.22;;;0.60;;
71368;SDS011;59175;53.214;5.728;2022-12-18T14:40:46;9.05;;;1.35;;
71368;SDS011;59175;53.214;5.728;2022-12-18T14:43:11;8.50;;;1.67;;
71368;SDS011;59175;53.214;5.728;2022-12-18T14:45:37;5.95;;;1.00;;
71368;SDS011;59175;53.214;5.728;2022-12-18T14:48:06;2.95;;;1.15;;
71368;SDS011;59175;53.214;5.728;2022-12-18T14:50:32;5.28;;;1.73;;
71368;SDS011;59175;53.214;5.728;2022-12-18T14:52:57;3.33;;;0.87;;
71368;SDS011;59175;53.214;5.728;2022-12-18T14:55:22;1.47;;;0.70;;
71368;SDS011;59175;53.214;5.728;2022-12-18T14:57:51;1.43;;;0.50;;
71368;SDS011;59175;53.214;5.728;2022-12-18T15:00:18;3.47;;;0.80;;
71368;SDS011;59175;53.214;5.728;2022-12-18T15:02:45;2.40;;;0.57;;
71368;SDS011;59175;53.214;5.728;2022-12-18T15:05:18;3.85;;;1.30;;
71368;SDS011;59175;53.214;5.728;2022-12-18T15:07:48;4.22;;;1.52;;
71368;SDS011;59175;53.214;5.728;2022-12-18T15:10:15;1.75;;;0.50;;
71368;SDS011;59175;53.214;5.728;2022-12-18T15:12:42;1.33;;;0.63;;
71368;SDS011;59175;53.214;5.728;2022-12-18T15:18:00;2.50;;;0.73;;
71368;SDS011;59175;53.214;5.728;2022-12-18T15:20:26;2.57;;;1.30;;
71368;SDS011;59175;53.214;5.728;2022-12-18T15:22:52;3.47;;;1.90;;
71368;SDS011;59175;53.214;5.728;2022-12-18T15:25:27;1.13;;;0.33;;
71368;SDS011;59175;53.214;5.728;2022-12-18T15:27:53;1.85;;;0.57;;
71368;SDS011;59175;53.214;5.728;2022-12-18T15:30:20;3.85;;;0.90;;
71368;SDS011;59175;53.214;5.728;2022-12-18T15:32:45;6.15;;;1.55;;
71368;SDS011;59175;53.214;5.728;2022-12-18T15:37:39;2.88;;;1.05;;
71368;SDS011;59175;53.214;5.728;2022-12-18T15:40:05;2.47;;;0.67;;
71368;SDS011;59175;53.214;5.728;2022-12-18T15:42:30;2.17;;;0.57;;
71368;SDS011;59175;53.214;5.728;2022-12-18T15:45:14;4.20;;;0.73;;
71368;SDS011;59175;53.214;5.728;2022-12-18T15:47:39;8.03;;;1.40;;
71368;SDS011;59175;53.214;5.728;2022-12-18T15:50:06;6.03;;;1.15;;
71368;SDS011;59175;53.214;5.728;2022-12-18T15:52:32;2.63;;;1.37;;
71368;SDS011;59175;53.214;5.728;2022-12-18T15:55:01;1.42;;;0.40;;
71368;SDS011;59175;53.214;5.728;2022-12-18T15:57:44;5.53;;;0.63;;
71368;SDS011;59175;53.214;5.728;2022-12-18T16:00:11;4.43;;;1.00;;
71368;SDS011;59175;53.214;5.728;2022-12-18T16:02:36;4.68;;;1.48;;
71368;SDS011;59175;53.214;5.728;2022-12-18T16:05:02;2.23;;;0.93;;
71368;SDS011;59175;53.214;5.728;2022-12-18T16:07:28;4.97;;;0.90;;
71368;SDS011;59175;53.214;5.728;2022-12-18T16:09:53;3.33;;;1.77;;
71368;SDS011;59175;53.214;5.728;2022-12-18T16:12:20;0.77;;;0.23;;
71368;SDS011;59175;53.214;5.728;2022-12-18T16:14:46;2.22;;;1.33;;
71368;SDS011;59175;53.214;5.728;2022-12-18T16:17:12;0.87;;;0.43;;
71368;SDS011;59175;53.214;5.728;2022-12-18T16:19:37;3.05;;;1.40;;
71368;SDS011;59175;53.214;5.728;2022-12-18T16:22:02;4.83;;;1.57;;
71368;SDS011;59175;53.214;5.728;2022-12-18T16:24:29;2.47;;;0.83;;
71368;SDS011;59175;53.214;5.728;2022-12-18T16:26:55;5.23;;;0.63;;
71368;SDS011;59175;53.214;5.728;2022-12-18T16:29:23;6.82;;;0.75;;
71368;SDS011;59175;53.214;5.728;2022-12-18T16:31:52;2.03;;;0.30;;
71368;SDS011;59175;53.214;5.728;2022-12-18T16:36:50;1.40;;;0.43;;